createdAt,value
2018-06-15T00:00:33.241Z,84.00
2018-06-15T00:03:37.628Z,83.46
2018-06-15T00:06:41.929Z,83.68
2018-06-15T00:09:46.398Z,83.98
2018-06-15T00:12:50.694Z,83.25
2018-06-15T00:15:55.191Z,83.09
2018-06-15T00:18:59.484Z,83.36
2018-06-15T00:22:03.886Z,82.58
2018-06-15T00:25:08.216Z,82.48
2018-06-15T00:28:12.863Z,82.24
2018-06-15T00:31:17.332Z,83.56
2018-06-15T00:34:21.599Z,83.67
2018-06-15T00:37:27.133Z,83.50
2018-06-15T00:40:32.175Z,83.58
2018-06-15T00:43:36.554Z,83.24
2018-06-15T00:46:41.181Z,83.33
2018-06-15T00:49:45.506Z,83.46
2018-06-15T00:52:49.664Z,83.07
2018-06-15T00:55:54.561Z,83.59
2018-06-15T00:58:58.926Z,84.42
2018-06-15T01:02:03.239Z,82.95
2018-06-15T01:05:07.864Z,83.10
2018-06-15T01:08:12.141Z,83.14
2018-06-15T01:11:16.495Z,82.94
2018-06-15T01:14:20.833Z,82.82
2018-06-15T01:17:25.177Z,82.83
2018-06-15T01:20:29.636Z,82.85
2018-06-15T01:23:34.033Z,82.81
2018-06-15T01:27:02.177Z,82.07
2018-06-15T01:30:07.802Z,82.06
2018-06-15T01:33:12.319Z,81.53
2018-06-15T01:36:16.677Z,81.72
2018-06-15T01:39:21.693Z,81.60
2018-06-15T01:42:26.005Z,82.00
2018-06-15T01:45:30.488Z,82.17
2018-06-15T01:48:35.947Z,81.20
2018-06-15T01:51:40.258Z,82.34
2018-06-15T01:54:44.558Z,82.34
2018-06-15T01:57:48.943Z,81.41
2018-06-15T02:00:53.429Z,81.67
2018-06-15T02:03:57.777Z,81.87
2018-06-15T02:07:02.162Z,81.72
2018-06-15T02:10:06.461Z,81.86
2018-06-15T02:13:10.773Z,81.89
2018-06-15T02:16:15.086Z,82.30
2018-06-15T02:19:19.390Z,82.03
2018-06-15T02:22:23.677Z,82.83
2018-06-15T02:25:27.954Z,81.93
2018-06-15T02:28:35.190Z,81.09
2018-06-15T02:31:39.526Z,81.40
2018-06-15T02:34:43.787Z,81.92
2018-06-15T02:37:48.079Z,81.95
2018-06-15T02:40:52.355Z,81.49
2018-06-15T02:43:56.700Z,82.05
2018-06-15T02:47:00.962Z,82.06
2018-06-15T02:50:05.256Z,82.60
2018-06-15T02:53:09.561Z,81.57
2018-06-15T02:56:13.877Z,82.64
2018-06-15T02:59:18.135Z,82.43
2018-06-15T03:02:22.406Z,82.61
2018-06-15T03:05:26.823Z,81.87
2018-06-15T03:08:31.345Z,82.57
2018-06-15T03:11:35.918Z,82.33
2018-06-15T03:14:40.206Z,81.87
2018-06-15T03:17:44.938Z,81.11
2018-06-15T03:20:49.289Z,82.84
2018-06-15T03:23:53.601Z,83.35
2018-06-15T03:27:19.684Z,83.05
2018-06-15T03:30:23.964Z,82.13
2018-06-15T03:33:29.719Z,82.60
2018-06-15T03:36:37.426Z,82.35
2018-06-15T03:39:42.298Z,82.11
2018-06-15T03:42:46.803Z,81.87
2018-06-15T03:45:51.061Z,81.69
2018-06-15T03:48:55.443Z,80.81
2018-06-15T03:51:59.757Z,81.80
2018-06-15T03:55:04.161Z,81.64
2018-06-15T03:58:08.453Z,81.47
2018-06-15T04:01:13.421Z,80.85
2018-06-15T04:04:17.844Z,82.55
2018-06-15T04:07:22.200Z,81.36
2018-06-15T04:10:26.933Z,81.18
2018-06-15T04:13:31.195Z,80.79
2018-06-15T04:16:42.885Z,80.19
2018-06-15T04:19:48.044Z,80.35
2018-06-15T04:22:53.096Z,80.39
2018-06-15T04:25:57.445Z,80.00
2018-06-15T04:29:01.818Z,79.35
2018-06-15T04:32:06.166Z,80.40
2018-06-15T04:35:10.602Z,79.59
2018-06-15T04:38:15.691Z,78.06
2018-06-15T04:41:20.237Z,78.01
2018-06-15T04:44:25.670Z,77.34
2018-06-15T04:47:29.972Z,76.61
2018-06-15T04:50:34.485Z,76.93
2018-06-15T04:53:38.838Z,76.34
2018-06-15T04:56:43.151Z,75.96
2018-06-15T04:59:47.442Z,76.25
2018-06-15T05:02:52.097Z,75.46
2018-06-15T05:05:56.377Z,75.57
2018-06-15T05:09:00.693Z,75.45
2018-06-15T05:12:09.998Z,76.09
2018-06-15T05:15:14.327Z,75.77
2018-06-15T05:18:19.570Z,75.96
2018-06-15T05:21:23.962Z,75.51
2018-06-15T05:24:28.295Z,75.32
2018-06-15T05:27:32.649Z,74.72
2018-06-15T05:30:36.921Z,73.56
2018-06-15T05:33:41.238Z,72.54
2018-06-15T05:36:45.708Z,73.09
2018-06-15T05:39:50.095Z,72.74
2018-06-15T05:42:54.509Z,73.16
2018-06-15T05:45:58.954Z,73.67
2018-06-15T05:49:03.350Z,74.37
2018-06-15T05:52:07.771Z,73.24
2018-06-15T05:55:12.158Z,73.01
2018-06-15T05:58:16.616Z,72.64
2018-06-15T06:01:22.043Z,71.52
2018-06-15T06:04:26.444Z,67.45
2018-06-15T06:07:31.054Z,61.95
2018-06-15T06:10:35.346Z,56.28
2018-06-15T06:13:39.795Z,53.40
2018-06-15T06:16:44.331Z,54.10
2018-06-15T06:19:48.913Z,55.19
2018-06-15T06:22:53.539Z,53.82
2018-06-15T06:25:57.935Z,52.24
2018-06-15T06:29:02.334Z,50.98
2018-06-15T06:32:06.874Z,48.90
2018-06-15T06:35:11.735Z,48.26
2018-06-15T06:38:16.149Z,47.17
2018-06-15T06:41:21.181Z,44.31
2018-06-15T06:44:25.574Z,46.67
2018-06-15T06:47:29.860Z,44.73
2018-06-15T06:50:34.205Z,44.67
2018-06-15T06:53:38.875Z,46.15
2018-06-15T06:56:43.432Z,46.57
2018-06-15T06:59:47.723Z,47.26
2018-06-15T07:02:52.985Z,46.81
2018-06-15T07:05:57.809Z,45.58
2018-06-15T07:09:02.185Z,43.02
2018-06-15T07:12:06.830Z,42.27
2018-06-15T07:15:11.246Z,42.46
2018-06-15T07:18:16.130Z,43.65
2018-06-15T07:21:20.645Z,45.58
2018-06-15T07:24:24.947Z,43.93
2018-06-15T07:27:29.956Z,43.15
2018-06-15T07:30:34.267Z,43.55
2018-06-15T07:33:38.665Z,44.79
2018-06-15T07:36:43.036Z,45.09
2018-06-15T07:39:48.147Z,46.41
2018-06-15T07:42:53.124Z,50.12
2018-06-15T07:45:57.449Z,45.63
2018-06-15T07:49:02.006Z,45.44
2018-06-15T07:52:06.355Z,47.07
2018-06-15T07:55:10.712Z,44.09
2018-06-15T07:58:15.210Z,45.39
2018-06-15T08:01:19.531Z,45.50
2018-06-15T08:04:23.909Z,44.90
2018-06-15T08:07:28.250Z,45.68
2018-06-15T08:10:32.642Z,45.80
2018-06-15T08:13:37.010Z,44.95
2018-06-15T08:16:41.303Z,44.70
2018-06-15T08:19:45.594Z,47.75
2018-06-15T08:22:49.879Z,48.33
2018-06-15T08:25:54.805Z,48.34
2018-06-15T08:28:59.178Z,45.94
2018-06-15T08:32:04.044Z,46.82
2018-06-15T08:35:08.415Z,46.57
2018-06-15T08:38:12.763Z,47.66
2018-06-15T08:41:17.102Z,47.74
2018-06-15T08:44:21.400Z,48.60
2018-06-15T08:47:25.725Z,49.49
2018-06-15T08:50:30.069Z,48.11
2018-06-15T08:53:34.958Z,48.81
2018-06-15T08:56:39.275Z,50.30
2018-06-15T08:59:44.047Z,47.82
2018-06-15T09:02:49.435Z,49.92
2018-06-15T09:05:53.711Z,50.27
2018-06-15T09:08:58.638Z,54.55
2018-06-15T09:12:02.962Z,48.02
2018-06-15T09:15:07.354Z,50.63
2018-06-15T09:18:12.348Z,46.90
2018-06-15T09:21:16.597Z,47.28
2018-06-15T09:24:21.014Z,43.30
2018-06-15T09:27:25.069Z,49.70
2018-06-15T09:30:29.494Z,45.94
2018-06-15T09:33:34.120Z,43.49
2018-06-15T09:36:38.593Z,48.01
2018-06-15T09:39:42.950Z,43.42
2018-06-15T09:42:47.246Z,42.84
2018-06-15T09:45:52.907Z,42.69
2018-06-15T09:48:57.280Z,43.94
2018-06-15T09:52:01.577Z,43.87
2018-06-15T09:55:05.964Z,43.14
2018-06-15T09:58:11.003Z,43.89
2018-06-15T10:01:15.290Z,44.88
2018-06-15T10:04:19.611Z,44.73
2018-06-15T10:07:23.882Z,42.09
2018-06-15T10:10:28.234Z,45.87
2018-06-15T10:13:32.633Z,43.29
2018-06-15T10:16:37.163Z,43.09
2018-06-15T10:19:41.550Z,41.80
2018-06-15T10:22:52.711Z,42.37
2018-06-15T10:25:57.313Z,42.58
2018-06-15T10:29:01.585Z,50.38
2018-06-15T10:32:05.791Z,41.76
2018-06-15T10:35:10.063Z,45.43
2018-06-15T10:38:14.354Z,44.96
2018-06-15T10:41:18.771Z,40.95
2018-06-15T10:44:23.471Z,43.44
2018-06-15T10:47:27.742Z,43.78
2018-06-15T10:50:32.023Z,42.33
2018-06-15T10:53:36.637Z,46.63
2018-06-15T10:56:41.010Z,43.21
2018-06-15T10:59:45.034Z,43.54
2018-06-15T11:02:49.314Z,46.53
2018-06-15T11:05:53.967Z,42.54
2018-06-15T11:08:58.293Z,46.95
2018-06-15T11:12:03.065Z,43.16
2018-06-15T11:15:07.352Z,42.47
2018-06-15T11:18:19.584Z,46.73
2018-06-15T11:21:27.587Z,45.24
2018-06-15T11:24:33.940Z,46.35
2018-06-15T11:27:38.747Z,47.18
2018-06-15T11:30:43.120Z,43.56
2018-06-15T11:33:47.609Z,45.27
2018-06-15T11:36:51.924Z,45.72
2018-06-15T11:39:56.381Z,45.96
2018-06-15T11:43:01.825Z,45.25
2018-06-15T11:46:06.484Z,44.87
2018-06-15T11:49:10.855Z,42.96
2018-06-15T11:52:15.813Z,40.08
2018-06-15T11:55:20.170Z,43.27
2018-06-15T11:58:24.448Z,43.25
2018-06-15T12:01:28.973Z,44.67
2018-06-15T12:04:34.279Z,43.43
2018-06-15T12:07:38.622Z,46.51
2018-06-15T12:10:44.090Z,42.02
2018-06-15T12:13:54.176Z,42.54
2018-06-15T12:16:59.882Z,43.83
2018-06-15T12:20:07.219Z,42.59
2018-06-15T12:23:14.357Z,42.09
2018-06-15T12:26:18.665Z,42.51
2018-06-15T12:29:23.929Z,40.19
2018-06-15T12:32:29.569Z,43.49
2018-06-15T12:35:34.233Z,43.51
2018-06-15T12:38:39.035Z,42.18
2018-06-15T12:41:43.417Z,42.14
2018-06-15T12:44:47.811Z,40.42
2018-06-15T12:47:52.192Z,41.30
2018-06-15T12:50:56.645Z,41.43
2018-06-15T12:54:01.599Z,43.14
2018-06-15T12:57:06.461Z,41.91
2018-06-15T13:00:11.035Z,45.31
2018-06-15T13:03:15.376Z,44.47
2018-06-15T13:06:19.777Z,44.98
2018-06-15T13:09:24.517Z,42.80
2018-06-15T13:12:29.369Z,44.04
2018-06-15T13:15:33.739Z,44.07
2018-06-15T13:18:38.023Z,44.76
2018-06-15T13:21:42.132Z,41.39
2018-06-15T13:24:46.873Z,44.87
2018-06-15T13:27:51.251Z,41.66
2018-06-15T13:30:55.710Z,42.11
2018-06-15T13:34:00.137Z,42.14
2018-06-15T13:37:05.440Z,41.99
2018-06-15T13:40:10.212Z,39.99
2018-06-15T13:43:14.424Z,42.81
2018-06-15T13:46:27.913Z,41.33
2018-06-15T13:49:33.863Z,38.70
2018-06-15T13:52:39.199Z,40.81
2018-06-15T13:55:43.696Z,45.27
2018-06-15T13:58:50.235Z,41.60
2018-06-15T14:01:55.538Z,40.71
2018-06-15T14:04:59.896Z,42.45
2018-06-15T14:08:04.709Z,39.86
2018-06-15T14:11:09.824Z,42.26
2018-06-15T14:14:14.146Z,41.13
2018-06-15T14:17:18.614Z,41.59
2018-06-15T14:20:23.227Z,39.66
2018-06-15T14:23:28.554Z,41.98
2018-06-15T14:26:33.165Z,41.30
2018-06-15T14:29:39.155Z,43.19
2018-06-15T14:32:44.850Z,39.94
2018-06-15T14:35:49.387Z,37.97
2018-06-15T14:38:53.995Z,40.93
2018-06-15T14:41:58.577Z,39.05
2018-06-15T14:45:03.132Z,41.58
2018-06-15T14:48:07.551Z,41.32
2018-06-15T14:51:11.934Z,41.45
2018-06-15T14:54:16.951Z,41.05
2018-06-15T14:57:21.630Z,42.03
2018-06-15T15:00:25.959Z,42.98
2018-06-15T15:03:30.436Z,40.26
2018-06-15T15:06:35.231Z,41.55
2018-06-15T15:09:39.690Z,38.09
2018-06-15T15:12:44.167Z,39.73
2018-06-15T15:15:50.738Z,39.44
2018-06-15T15:18:56.814Z,40.27
2018-06-15T15:22:01.303Z,41.43
2018-06-15T15:25:05.639Z,40.93
2018-06-15T15:28:10.279Z,41.19
2018-06-15T15:31:14.625Z,41.11
2018-06-15T15:34:18.916Z,41.17
2018-06-15T15:37:24.429Z,41.99
2018-06-15T15:40:28.785Z,40.61
2018-06-15T15:43:33.883Z,41.87
2018-06-15T15:46:38.226Z,41.85
2018-06-15T15:49:42.534Z,39.93
2018-06-15T15:52:46.680Z,40.30
2018-06-15T15:55:51.109Z,40.20
2018-06-15T15:58:55.672Z,41.09
2018-06-15T16:02:00.605Z,40.10
2018-06-15T16:05:05.192Z,40.45
2018-06-15T16:08:09.631Z,41.40
2018-06-15T16:11:14.354Z,41.26
2018-06-15T16:14:19.057Z,40.12
2018-06-15T16:17:23.574Z,40.08
2018-06-15T16:20:28.394Z,39.75
2018-06-15T16:23:34.061Z,40.07
2018-06-15T16:26:38.710Z,40.10
2018-06-15T16:29:43.491Z,39.53
2018-06-15T16:32:48.442Z,39.10
2018-06-15T16:35:53.097Z,40.62
2018-06-15T16:38:58.384Z,40.72
2018-06-15T16:42:02.972Z,40.00
2018-06-15T16:45:07.530Z,39.76
2018-06-15T16:48:11.993Z,36.69
2018-06-15T16:51:16.517Z,35.21
2018-06-15T16:54:21.990Z,33.88
2018-06-15T16:57:26.265Z,34.20
2018-06-15T17:00:34.193Z,35.39
2018-06-15T17:03:38.737Z,36.08
2018-06-15T17:06:43.271Z,37.89
2018-06-15T17:09:47.712Z,36.13
2018-06-15T17:12:52.182Z,36.48
2018-06-15T17:15:56.573Z,39.16
2018-06-15T17:19:01.115Z,39.57
2018-06-15T17:22:05.225Z,40.56
2018-06-15T17:25:09.746Z,41.44
2018-06-15T17:28:14.364Z,40.47
2018-06-15T17:31:19.027Z,40.47
2018-06-15T17:34:23.339Z,40.69
2018-06-15T17:37:27.722Z,42.49
2018-06-15T17:40:32.462Z,41.47
2018-06-15T17:43:37.172Z,41.32
2018-06-15T17:46:41.794Z,41.17
2018-06-15T17:49:46.273Z,41.70
2018-06-15T17:52:50.922Z,41.75
2018-06-15T17:55:55.367Z,42.51
2018-06-15T17:58:59.943Z,42.29
2018-06-15T18:02:04.424Z,42.47
2018-06-15T18:05:08.940Z,42.46
2018-06-15T18:08:13.351Z,42.49
2018-06-15T18:11:17.861Z,43.58
2018-06-15T18:14:22.213Z,47.74
2018-06-15T18:17:26.750Z,48.21
2018-06-15T18:20:31.262Z,47.86
2018-06-15T18:23:36.306Z,48.47
2018-06-15T18:26:40.663Z,48.44
2018-06-15T18:29:45.076Z,48.79
2018-06-15T18:32:49.417Z,49.26
2018-06-15T18:35:53.973Z,49.84
2018-06-15T18:38:58.281Z,50.28
2018-06-15T18:42:02.681Z,50.59
2018-06-15T18:45:07.344Z,51.56
2018-06-15T18:48:13.520Z,51.56
2018-06-15T18:51:18.218Z,52.19
2018-06-15T18:54:22.776Z,51.53
2018-06-15T18:57:27.286Z,52.12
2018-06-15T19:00:32.061Z,52.77
2018-06-15T19:03:37.365Z,52.88
2018-06-15T19:06:42.117Z,53.90
2018-06-15T19:09:47.189Z,54.78
2018-06-15T19:12:51.641Z,54.93
2018-06-15T19:15:56.190Z,56.24
2018-06-15T19:19:00.766Z,55.44
2018-06-15T19:22:05.401Z,56.95
2018-06-15T19:25:10.024Z,56.95
2018-06-15T19:28:14.460Z,58.01
2018-06-15T19:31:19.268Z,59.59
2018-06-15T19:34:23.735Z,62.25
2018-06-15T19:37:28.267Z,66.27
2018-06-15T19:40:32.757Z,67.22
2018-06-15T19:43:37.370Z,66.60
2018-06-15T19:46:41.808Z,67.45
2018-06-15T19:49:46.523Z,67.13
2018-06-15T19:52:52.274Z,67.08
2018-06-15T19:55:57.034Z,67.39
2018-06-15T19:59:01.403Z,67.15
2018-06-15T20:02:06.042Z,66.97
2018-06-15T20:05:10.656Z,66.85
2018-06-15T20:08:15.082Z,67.15
2018-06-15T20:11:19.539Z,68.16
2018-06-15T20:14:23.899Z,68.25
2018-06-15T20:17:29.252Z,68.53
2018-06-15T20:20:33.926Z,68.68
2018-06-15T20:23:38.324Z,68.66
2018-06-15T20:26:42.666Z,68.01
2018-06-15T20:29:48.857Z,68.31
2018-06-15T20:32:53.478Z,68.79
2018-06-15T20:35:57.987Z,69.85
2018-06-15T20:39:02.560Z,69.44
2018-06-15T20:42:07.283Z,69.77
2018-06-15T20:45:11.732Z,70.63
2018-06-15T20:48:16.358Z,71.64
2018-06-15T20:51:20.487Z,72.68
2018-06-15T20:54:24.938Z,73.44
2018-06-15T20:57:30.046Z,73.72
2018-06-15T21:00:34.504Z,74.87
2018-06-15T21:03:40.726Z,73.49
2018-06-15T21:06:45.331Z,73.61
2018-06-15T21:09:49.990Z,72.48
2018-06-15T21:12:54.566Z,72.93
2018-06-15T21:16:00.252Z,72.96
2018-06-15T21:19:05.071Z,73.06
2018-06-15T21:22:09.870Z,73.59
2018-06-15T21:25:14.419Z,73.74
2018-06-15T21:28:19.714Z,73.94
2018-06-15T21:31:25.451Z,72.97
2018-06-15T21:34:30.847Z,73.32
2018-06-15T21:37:45.070Z,73.77
2018-06-15T21:40:50.967Z,74.43
2018-06-15T21:43:56.223Z,74.42
2018-06-15T21:47:03.181Z,74.20
2018-06-15T21:50:07.902Z,73.74
2018-06-15T21:53:13.796Z,73.51
2018-06-15T21:56:18.895Z,74.01
2018-06-15T21:59:23.349Z,74.44
2018-06-15T22:02:27.819Z,75.65
2018-06-15T22:05:33.977Z,75.40
2018-06-15T22:08:38.313Z,75.86
2018-06-15T22:11:42.837Z,75.33
2018-06-15T22:14:47.542Z,75.30
2018-06-15T22:17:52.052Z,75.70
2018-06-15T22:20:56.453Z,76.60
2018-06-15T22:24:00.850Z,76.32
2018-06-15T22:27:05.880Z,77.19
2018-06-15T22:30:10.186Z,77.39
2018-06-15T22:33:14.446Z,76.98
2018-06-15T22:36:18.977Z,77.74
2018-06-15T22:39:23.245Z,77.60
2018-06-15T22:42:27.503Z,76.87
2018-06-15T22:45:32.775Z,77.02
2018-06-15T22:48:37.154Z,77.20
2018-06-15T22:51:43.053Z,77.46
2018-06-15T22:54:47.964Z,77.44
2018-06-15T22:57:52.285Z,77.16
2018-06-15T23:00:56.606Z,76.75
2018-06-15T23:04:01.629Z,76.61
2018-06-15T23:07:05.998Z,77.30
2018-06-15T23:10:10.338Z,76.71
2018-06-15T23:13:15.084Z,77.41
2018-06-15T23:16:20.121Z,76.77
2018-06-15T23:19:24.388Z,77.49
2018-06-15T23:22:28.653Z,77.11
2018-06-15T23:25:33.823Z,77.84
2018-06-15T23:28:38.103Z,77.80
2018-06-15T23:31:42.984Z,78.40
2018-06-15T23:34:47.865Z,77.00
2018-06-15T23:37:52.158Z,77.68
2018-06-15T23:40:56.438Z,77.87
2018-06-15T23:44:01.508Z,78.14
2018-06-15T23:47:05.843Z,78.22
2018-06-15T23:50:10.639Z,77.71
2018-06-15T23:53:15.054Z,78.64
2018-06-15T23:56:19.711Z,77.30
2018-06-15T23:59:24.682Z,77.73
